createdAt,value
2019-02-26T00:00:34.361Z,84.07
2019-02-26T00:03:04.653Z,88.97
2019-02-26T00:05:33.238Z,77.20
2019-02-26T00:08:02.628Z,85.33
2019-02-26T00:10:32.147Z,84.73
2019-02-26T00:13:01.364Z,72.13
2019-02-26T00:15:33.394Z,77.93
2019-02-26T00:18:00.011Z,81.37
2019-02-26T00:20:29.661Z,82.53
2019-02-26T00:22:59.756Z,75.30
2019-02-26T00:25:28.691Z,81.40
2019-02-26T00:27:58.673Z,83.27
2019-02-26T00:30:27.128Z,79.70
2019-02-26T00:32:57.739Z,77.03
2019-02-26T00:35:27.474Z,81.43
2019-02-26T00:37:55.938Z,77.77
2019-02-26T00:40:24.416Z,80.10
2019-02-26T00:42:55.037Z,76.47
2019-02-26T00:45:26.869Z,76.53
2019-02-26T00:47:53.118Z,77.13
2019-02-26T00:50:21.553Z,74.23
2019-02-26T00:52:49.956Z,84.07
2019-02-26T00:55:18.563Z,79.03
2019-02-26T00:57:46.987Z,80.53
2019-02-26T01:00:16.525Z,77.73
2019-02-26T01:02:45.104Z,75.27
2019-02-26T01:05:15.887Z,76.57
2019-02-26T01:07:46.735Z,76.50
2019-02-26T01:10:16.302Z,81.83
2019-02-26T01:12:45.333Z,84.63
2019-02-26T01:15:20.782Z,89.80
2019-02-26T01:17:49.211Z,80.47
2019-02-26T01:20:19.528Z,84.53
2019-02-26T01:22:48.625Z,88.50
2019-02-26T01:25:18.552Z,93.43
2019-02-26T01:27:48.281Z,98.40
2019-02-26T01:30:21.120Z,96.33
2019-02-26T01:32:47.730Z,99.33
2019-02-26T01:35:16.254Z,100.13
2019-02-26T01:37:44.754Z,102.13
2019-02-26T01:40:16.373Z,97.93
2019-02-26T01:42:47.187Z,98.83
2019-02-26T01:45:14.555Z,102.10
2019-02-26T01:47:45.578Z,93.87
2019-02-26T01:50:15.974Z,93.20
2019-02-26T01:52:43.789Z,92.40
2019-02-26T01:55:12.725Z,90.70
2019-02-26T01:57:43.361Z,102.87
2019-02-26T02:00:13.213Z,98.37
2019-02-26T02:02:41.685Z,91.80
2019-02-26T02:05:10.451Z,94.03
2019-02-26T02:07:38.924Z,100.60
2019-02-26T02:10:09.975Z,98.57
2019-02-26T02:12:39.720Z,97.17
2019-02-26T02:15:12.367Z,96.27
2019-02-26T02:17:40.970Z,103.97
2019-02-26T02:20:13.106Z,104.45
2019-02-26T02:22:44.250Z,103.07
2019-02-26T02:25:12.696Z,95.70
2019-02-26T02:27:41.117Z,95.00
2019-02-26T02:30:22.679Z,102.93
2019-02-26T02:32:51.041Z,109.50
2019-02-26T02:35:19.096Z,105.10
2019-02-26T02:37:48.035Z,101.90
2019-02-26T02:40:16.547Z,99.23
2019-02-26T02:42:48.419Z,100.47
2019-02-26T02:45:20.111Z,95.33
2019-02-26T02:47:45.585Z,106.63
2019-02-26T02:50:18.202Z,108.10
2019-02-26T02:52:45.769Z,105.67
2019-02-26T02:55:17.197Z,104.03
2019-02-26T02:57:46.483Z,94.63
2019-02-26T03:00:16.094Z,101.97
2019-02-26T03:02:46.809Z,108.73
2019-02-26T03:05:14.642Z,102.47
2019-02-26T03:07:45.876Z,101.67
2019-02-26T03:10:16.005Z,105.17
2019-02-26T03:12:48.630Z,98.80
2019-02-26T03:15:15.396Z,106.83
2019-02-26T03:17:43.809Z,106.47
2019-02-26T03:20:13.487Z,105.03
2019-02-26T03:22:45.573Z,95.10
2019-02-26T03:25:17.657Z,99.57
2019-02-26T03:27:46.227Z,107.30
2019-02-26T03:30:31.913Z,102.60
2019-02-26T03:32:58.638Z,104.80
2019-02-26T03:35:23.556Z,99.33
2019-02-26T03:37:54.868Z,99.37
2019-02-26T03:40:23.990Z,94.10
2019-02-26T03:42:52.609Z,97.93
2019-02-26T03:45:24.884Z,108.53
2019-02-26T03:47:51.289Z,97.13
2019-02-26T03:50:19.716Z,103.87
2019-02-26T03:52:48.129Z,96.77
2019-02-26T03:55:18.938Z,98.53
2019-02-26T03:57:47.404Z,106.63
2019-02-26T04:00:20.039Z,99.80
2019-02-26T04:02:51.055Z,102.20
2019-02-26T04:05:18.484Z,99.50
2019-02-26T04:07:49.882Z,107.60
2019-02-26T04:10:17.104Z,102.37
2019-02-26T04:12:48.970Z,116.40
2019-02-26T04:15:19.095Z,116.43
2019-02-26T04:17:47.608Z,120.13
2019-02-26T04:20:16.625Z,127.80
2019-02-26T04:22:48.858Z,121.40
2019-02-26T04:25:22.138Z,120.57
2019-02-26T04:28:10.844Z,111.57
2019-02-26T04:30:53.502Z,113.97
2019-02-26T04:33:41.416Z,113.63
2019-02-26T04:36:24.638Z,106.13
2019-02-26T04:39:19.019Z,115.67
2019-02-26T04:42:11.205Z,111.77
2019-02-26T04:45:09.202Z,111.57
2019-02-26T04:47:52.466Z,114.93
2019-02-26T04:50:23.027Z,122.43
2019-02-26T04:52:50.097Z,113.43
2019-02-26T04:55:18.508Z,123.23
2019-02-26T04:57:50.599Z,117.30
2019-02-26T05:00:17.085Z,120.63
2019-02-26T05:02:45.810Z,113.47
2019-02-26T05:05:14.253Z,110.33
2019-02-26T05:07:45.044Z,107.90
2019-02-26T05:10:13.034Z,114.27
2019-02-26T05:12:41.457Z,109.27
2019-02-26T05:15:13.890Z,105.13
2019-02-26T05:17:40.417Z,104.93
2019-02-26T05:20:12.433Z,103.77
2019-02-26T05:22:39.085Z,100.90
2019-02-26T05:25:11.021Z,109.60
2019-02-26T05:27:39.990Z,117.13
2019-02-26T05:30:12.453Z,117.23
2019-02-26T05:32:39.674Z,110.70
2019-02-26T05:35:08.176Z,111.93
2019-02-26T05:37:40.175Z,117.30
2019-02-26T05:40:10.421Z,109.27
2019-02-26T05:42:37.725Z,111.53
2019-02-26T05:45:09.128Z,107.10
2019-02-26T05:47:37.032Z,113.07
2019-02-26T05:50:12.981Z,111.03
2019-02-26T05:52:37.790Z,119.97
2019-02-26T05:55:06.892Z,115.17
2019-02-26T05:57:35.326Z,130.52
2019-02-26T06:00:08.234Z,112.47
2019-02-26T06:02:38.818Z,122.10
2019-02-26T06:05:07.677Z,115.83
2019-02-26T06:07:38.580Z,113.57
2019-02-26T06:10:06.394Z,113.23
2019-02-26T06:12:35.590Z,115.00
2019-02-26T06:15:08.012Z,147.87
2019-02-26T06:17:40.628Z,133.13
2019-02-26T06:20:12.891Z,121.72
2019-02-26T06:22:41.326Z,116.57
2019-02-26T06:25:18.347Z,112.17
2019-02-26T06:27:40.322Z,130.27
2019-02-26T06:30:13.381Z,124.60
2019-02-26T06:32:44.609Z,130.60
2019-02-26T06:35:18.637Z,114.73
2019-02-26T06:37:46.336Z,116.27
2019-02-26T06:40:16.225Z,128.83
2019-02-26T06:42:44.754Z,128.17
2019-02-26T06:45:16.537Z,115.90
2019-02-26T06:47:45.715Z,123.97
2019-02-26T06:50:17.914Z,131.33
2019-02-26T06:52:47.516Z,128.93
2019-02-26T06:55:15.328Z,132.10
2019-02-26T06:57:47.181Z,140.17
2019-02-26T07:00:18.692Z,132.37
2019-02-26T07:02:46.912Z,132.60
2019-02-26T07:05:15.517Z,130.83
2019-02-26T07:07:43.962Z,131.47
2019-02-26T07:10:18.352Z,133.90
2019-02-26T07:12:46.151Z,130.23
2019-02-26T07:15:16.037Z,120.10
2019-02-26T07:17:46.069Z,125.67
2019-02-26T07:20:14.810Z,136.17
2019-02-26T07:22:44.088Z,136.03
2019-02-26T07:25:16.059Z,139.37
2019-02-26T07:27:43.615Z,131.30
2019-02-26T07:30:12.624Z,136.53
2019-02-26T07:32:43.058Z,140.60
2019-02-26T07:35:13.564Z,143.33
2019-02-26T07:37:41.365Z,136.73
2019-02-26T07:40:15.661Z,141.62
2019-02-26T07:42:44.730Z,136.93
2019-02-26T07:45:15.285Z,149.90
2019-02-26T07:47:45.202Z,147.50
2019-02-26T07:50:14.940Z,153.53
2019-02-26T07:52:44.184Z,145.53
2019-02-26T07:55:14.833Z,140.93
2019-02-26T07:57:45.313Z,134.77
2019-02-26T08:00:16.277Z,138.53
2019-02-26T08:02:44.689Z,132.33
2019-02-26T08:05:13.193Z,118.13
2019-02-26T08:07:43.855Z,114.07
2019-02-26T08:10:14.982Z,113.50
2019-02-26T08:12:44.377Z,121.93
2019-02-26T08:15:15.487Z,116.27
2019-02-26T08:17:47.849Z,114.03
2019-02-26T08:20:15.167Z,112.87
2019-02-26T08:22:43.605Z,102.10
2019-02-26T08:25:13.212Z,99.93
2019-02-26T08:27:41.913Z,89.63
2019-02-26T08:30:14.861Z,97.03
2019-02-26T08:32:42.920Z,94.50
2019-02-26T08:35:11.761Z,97.87
2019-02-26T08:37:40.258Z,91.53
2019-02-26T08:40:11.295Z,87.33
2019-02-26T08:42:39.716Z,84.43
2019-02-26T08:45:15.143Z,82.08
2019-02-26T08:47:43.939Z,82.40
2019-02-26T08:50:14.833Z,79.53
2019-02-26T08:52:44.863Z,80.23
2019-02-26T08:55:18.112Z,77.60
2019-02-26T08:57:45.759Z,77.83
2019-02-26T09:00:19.129Z,77.57
2019-02-26T09:02:50.632Z,72.80
2019-02-26T09:05:17.744Z,76.37
2019-02-26T09:07:47.513Z,74.20
2019-02-26T09:10:17.938Z,72.33
2019-02-26T09:12:48.707Z,76.37
2019-02-26T09:15:18.844Z,75.00
2019-02-26T09:17:47.334Z,72.00
2019-02-26T09:20:17.950Z,72.90
2019-02-26T09:22:50.191Z,70.73
2019-02-26T09:25:16.570Z,79.20
2019-02-26T09:27:45.032Z,72.43
2019-02-26T09:30:16.174Z,71.43
2019-02-26T09:32:44.994Z,74.13
2019-02-26T09:35:19.951Z,72.60
2019-02-26T09:37:49.946Z,74.37
2019-02-26T09:40:23.461Z,72.20
2019-02-26T09:42:54.272Z,75.13
2019-02-26T09:45:26.083Z,75.40
2019-02-26T09:47:55.726Z,72.87
2019-02-26T09:50:23.986Z,71.50
2019-02-26T09:52:55.512Z,70.67
2019-02-26T09:55:22.613Z,71.30
2019-02-26T09:57:51.024Z,72.80
2019-02-26T10:00:23.634Z,70.33
2019-02-26T10:02:52.137Z,68.70
2019-02-26T10:05:20.752Z,72.00
2019-02-26T10:07:51.118Z,69.63
2019-02-26T10:10:20.664Z,67.37
2019-02-26T10:12:51.153Z,68.23
2019-02-26T10:15:19.707Z,68.07
2019-02-26T10:17:48.484Z,69.60
2019-02-26T10:20:27.962Z,69.77
2019-02-26T10:22:57.803Z,67.23
2019-02-26T10:25:26.395Z,64.30
2019-02-26T10:27:55.617Z,66.57
2019-02-26T10:30:24.097Z,63.63
2019-02-26T10:32:52.552Z,70.43
2019-02-26T10:35:32.463Z,68.43
2019-02-26T10:37:57.573Z,69.12
2019-02-26T10:40:35.117Z,63.60
2019-02-26T10:42:58.069Z,72.20
2019-02-26T10:45:27.729Z,63.30
2019-02-26T10:47:58.743Z,60.57
2019-02-26T10:50:31.386Z,59.30
2019-02-26T10:53:01.409Z,62.10
2019-02-26T10:55:35.341Z,60.00
2019-02-26T10:57:58.603Z,52.33
2019-02-26T11:00:32.219Z,57.27
2019-02-26T11:02:59.672Z,49.87
2019-02-26T11:05:28.086Z,49.23
2019-02-26T11:07:59.768Z,52.27
2019-02-26T11:10:26.774Z,51.73
2019-02-26T11:12:58.540Z,47.23
2019-02-26T11:15:26.821Z,49.60
2019-02-26T11:17:55.902Z,47.07
2019-02-26T11:20:27.833Z,47.43
2019-02-26T11:22:54.622Z,44.73
2019-02-26T11:25:24.808Z,44.27
2019-02-26T11:27:53.288Z,43.93
2019-02-26T11:30:26.065Z,43.33
2019-02-26T11:32:58.622Z,45.08
2019-02-26T11:35:25.363Z,41.83
2019-02-26T11:37:55.368Z,41.73
2019-02-26T11:40:27.394Z,43.15
2019-02-26T11:42:55.450Z,43.28
2019-02-26T11:45:24.803Z,39.50
2019-02-26T11:47:55.183Z,39.88
2019-02-26T11:50:28.205Z,41.77
2019-02-26T11:52:55.055Z,40.70
2019-02-26T11:55:26.161Z,40.20
2019-02-26T11:57:53.863Z,38.85
2019-02-26T12:00:33.834Z,40.70
2019-02-26T12:02:58.769Z,41.20
2019-02-26T12:05:31.363Z,39.13
2019-02-26T12:07:58.815Z,41.58
2019-02-26T12:10:29.645Z,38.67
2019-02-26T12:13:00.053Z,39.15
2019-02-26T12:15:30.234Z,38.75
2019-02-26T12:17:58.747Z,40.23
2019-02-26T12:20:27.400Z,38.48
2019-02-26T12:22:55.835Z,39.42
2019-02-26T12:25:24.301Z,38.88
2019-02-26T12:27:52.776Z,37.48
2019-02-26T12:30:26.029Z,39.40
2019-02-26T12:32:55.181Z,36.50
2019-02-26T12:35:23.746Z,38.25
2019-02-26T12:37:53.634Z,38.85
2019-02-26T12:40:25.385Z,36.33
2019-02-26T12:42:52.740Z,39.55
2019-02-26T12:45:22.773Z,38.13
2019-02-26T12:47:54.485Z,36.38
2019-02-26T12:50:29.746Z,40.60
2019-02-26T12:52:57.314Z,35.25
2019-02-26T12:55:29.489Z,37.98
2019-02-26T12:57:57.084Z,36.20
2019-02-26T13:00:26.463Z,39.23
2019-02-26T13:02:54.913Z,37.73
2019-02-26T13:05:23.356Z,37.78
2019-02-26T13:07:51.806Z,38.65
2019-02-26T13:10:25.045Z,37.28
2019-02-26T13:12:59.005Z,39.67
2019-02-26T13:15:23.797Z,42.38
2019-02-26T13:17:54.480Z,40.92
2019-02-26T13:20:24.860Z,37.78
2019-02-26T13:22:56.187Z,37.65
2019-02-26T13:25:26.743Z,38.78
2019-02-26T13:27:53.621Z,39.50
2019-02-26T13:30:25.870Z,37.33
2019-02-26T13:32:59.783Z,39.67
2019-02-26T13:35:24.751Z,40.73
2019-02-26T13:37:59.468Z,42.93
2019-02-26T13:40:27.897Z,41.70
2019-02-26T13:45:27.537Z,36.58
2019-02-26T13:48:01.044Z,35.63
2019-02-26T13:50:30.308Z,33.88
2019-02-26T13:52:58.855Z,34.40
2019-02-26T13:55:27.357Z,41.45
2019-02-26T13:57:55.765Z,42.80
2019-02-26T14:00:26.621Z,40.40
2019-02-26T14:02:54.489Z,40.55
2019-02-26T14:05:22.961Z,42.47
2019-02-26T14:07:51.548Z,40.27
2019-02-26T14:10:24.116Z,42.17
2019-02-26T14:12:52.668Z,45.03
2019-02-26T14:15:26.060Z,40.87
2019-02-26T14:17:54.670Z,39.87
2019-02-26T14:20:23.152Z,37.00
2019-02-26T14:22:51.592Z,38.03
2019-02-26T14:25:20.358Z,36.73
2019-02-26T14:27:48.797Z,37.23
2019-02-26T14:30:18.157Z,35.97
2019-02-26T14:32:46.670Z,35.37
2019-02-26T14:35:15.534Z,37.03
2019-02-26T14:37:44.028Z,39.17
2019-02-26T14:40:17.625Z,40.57
2019-02-26T14:42:46.342Z,38.67
2019-02-26T14:45:20.372Z,42.40
2019-02-26T14:47:48.903Z,40.23
2019-02-26T14:50:22.378Z,44.73
2019-02-26T14:52:50.813Z,44.07
2019-02-26T14:55:19.331Z,45.67
2019-02-26T14:57:47.748Z,44.57
2019-02-26T15:00:30.455Z,44.37
2019-02-26T15:02:58.882Z,44.47
2019-02-26T15:05:27.383Z,45.20
2019-02-26T15:07:55.804Z,47.73
2019-02-26T15:10:24.385Z,45.73
2019-02-26T15:12:53.150Z,51.07
2019-02-26T15:15:21.614Z,49.17
2019-02-26T15:17:50.053Z,47.93
2019-02-26T15:20:19.770Z,49.30
2019-02-26T15:22:48.254Z,46.57
2019-02-26T15:25:22.465Z,51.40
2019-02-26T15:27:51.219Z,46.67
2019-02-26T15:30:20.672Z,51.80
2019-02-26T15:32:49.329Z,46.77
2019-02-26T15:35:18.350Z,44.97
2019-02-26T15:37:46.792Z,49.17
2019-02-26T15:40:17.428Z,50.20
2019-02-26T15:42:45.905Z,49.73
2019-02-26T15:45:23.909Z,51.90
2019-02-26T15:47:52.917Z,54.53
2019-02-26T15:50:21.968Z,53.93
2019-02-26T15:52:52.620Z,56.73
2019-02-26T15:55:25.881Z,54.27
2019-02-26T15:57:55.365Z,49.33
2019-02-26T16:00:24.610Z,50.97
2019-02-26T16:02:53.664Z,50.53
2019-02-26T16:05:27.342Z,47.30
2019-02-26T16:07:55.820Z,47.50
2019-02-26T16:10:24.319Z,42.83
2019-02-26T16:12:52.725Z,47.23
2019-02-26T16:15:21.258Z,50.33
2019-02-26T16:17:49.714Z,46.13
2019-02-26T16:20:19.634Z,47.37
2019-02-26T16:22:48.124Z,52.27
2019-02-26T16:25:16.759Z,43.93
2019-02-26T16:27:45.161Z,50.63
2019-02-26T16:30:22.308Z,53.00
2019-02-26T16:32:50.734Z,52.43
2019-02-26T16:35:19.257Z,51.17
2019-02-26T16:37:47.736Z,50.37
2019-02-26T16:40:17.385Z,51.60
2019-02-26T16:42:46.837Z,59.00
2019-02-26T16:45:26.175Z,55.57
2019-02-26T16:47:54.669Z,57.17
2019-02-26T16:50:25.673Z,58.20
2019-02-26T16:52:54.103Z,58.03
2019-02-26T16:55:23.135Z,60.50
2019-02-26T16:57:51.729Z,54.83
2019-02-26T17:00:27.716Z,59.73
2019-02-26T17:02:59.995Z,54.47
2019-02-26T17:05:26.494Z,57.30
2019-02-26T17:07:55.243Z,59.33
2019-02-26T17:10:29.436Z,54.57
2019-02-26T17:12:56.466Z,54.03
2019-02-26T17:15:32.750Z,58.97
2019-02-26T17:18:01.254Z,62.47
2019-02-26T17:20:29.702Z,59.93
2019-02-26T17:22:58.327Z,59.40
2019-02-26T17:25:28.953Z,57.50
2019-02-26T17:27:57.533Z,55.60
2019-02-26T17:30:26.158Z,61.53
2019-02-26T17:32:54.681Z,56.70
2019-02-26T17:35:23.127Z,59.37
2019-02-26T17:37:51.649Z,57.70
2019-02-26T17:40:24.100Z,60.10
2019-02-26T17:42:54.255Z,59.73
2019-02-26T17:45:30.937Z,63.80
2019-02-26T17:47:59.377Z,59.37
2019-02-26T17:50:30.822Z,58.93
2019-02-26T17:52:59.259Z,57.20
2019-02-26T17:55:28.084Z,62.73
2019-02-26T17:57:56.596Z,68.70
2019-02-26T18:00:27.018Z,64.97
2019-02-26T18:02:55.748Z,62.43
2019-02-26T18:05:24.276Z,65.97
2019-02-26T18:07:52.701Z,64.47
2019-02-26T18:10:23.278Z,67.57
2019-02-26T18:12:51.711Z,60.97
2019-02-26T18:15:20.840Z,67.87
2019-02-26T18:17:49.457Z,68.17
2019-02-26T18:20:20.948Z,64.23
2019-02-26T18:22:49.386Z,71.37
2019-02-26T18:25:20.949Z,64.17
2019-02-26T18:27:49.588Z,63.37
2019-02-26T18:30:28.397Z,57.13
2019-02-26T18:32:59.002Z,65.17
2019-02-26T18:35:27.089Z,75.50
2019-02-26T18:37:55.566Z,72.07
2019-02-26T18:40:27.902Z,71.50
2019-02-26T18:42:54.425Z,64.00
2019-02-26T18:45:27.859Z,63.60
2019-02-26T18:47:57.338Z,61.57
2019-02-26T18:50:28.579Z,73.80
2019-02-26T18:52:58.168Z,71.87
2019-02-26T18:55:28.430Z,70.30
2019-02-26T18:57:57.325Z,63.57
2019-02-26T19:00:27.665Z,67.53
2019-02-26T19:03:02.993Z,73.37
2019-02-26T19:05:31.897Z,71.77
2019-02-26T19:08:00.367Z,71.77
2019-02-26T19:10:28.838Z,74.03
2019-02-26T19:12:57.374Z,75.33
2019-02-26T19:15:33.179Z,77.40
2019-02-26T19:18:02.757Z,68.67
2019-02-26T19:20:34.963Z,72.67
2019-02-26T19:23:03.466Z,69.67
2019-02-26T19:25:32.107Z,73.23
2019-02-26T19:28:00.633Z,72.27
2019-02-26T19:30:29.055Z,73.93
2019-02-26T19:32:57.493Z,69.13
2019-02-26T19:35:25.929Z,70.30
2019-02-26T19:37:56.948Z,70.00
2019-02-26T19:40:55.204Z,75.07
2019-02-26T19:43:25.709Z,74.83
2019-02-26T19:45:53.948Z,67.47
2019-02-26T19:48:22.630Z,73.00
2019-02-26T19:50:51.064Z,73.93
2019-02-26T19:53:19.480Z,65.33
2019-02-26T19:55:50.042Z,77.03
2019-02-26T19:58:18.817Z,76.27
2019-02-26T20:00:47.350Z,81.03
2019-02-26T20:03:15.862Z,74.63
2019-02-26T20:05:46.518Z,74.17
2019-02-26T20:08:14.510Z,76.20
2019-02-26T20:10:42.956Z,72.63
2019-02-26T20:13:12.681Z,74.77
2019-02-26T20:15:41.463Z,73.73
2019-02-26T20:18:20.241Z,68.17
2019-02-26T20:20:41.025Z,73.00
2019-02-26T20:23:09.669Z,74.50
2019-02-26T20:25:42.525Z,73.73
2019-02-26T20:28:09.006Z,73.73
2019-02-26T20:30:37.413Z,75.87
2019-02-26T20:33:05.848Z,79.30
2019-02-26T20:35:34.357Z,75.87
2019-02-26T20:38:02.832Z,77.57
2019-02-26T20:40:31.297Z,76.37
2019-02-26T20:43:01.845Z,73.37
2019-02-26T20:45:29.825Z,80.00
2019-02-26T20:47:58.245Z,76.43
2019-02-26T20:50:26.777Z,75.20
2019-02-26T20:52:55.313Z,82.62
2019-02-26T20:55:25.681Z,81.00
2019-02-26T20:57:55.502Z,80.20
2019-02-26T21:00:25.281Z,77.90
2019-02-26T21:02:54.134Z,82.17
2019-02-26T21:05:22.581Z,78.13
2019-02-26T21:07:51.116Z,74.50
2019-02-26T21:10:21.297Z,78.93
2019-02-26T21:12:49.702Z,79.10
2019-02-26T21:15:22.520Z,84.70
2019-02-26T21:17:50.999Z,81.87
2019-02-26T21:20:19.421Z,84.77
2019-02-26T21:22:47.847Z,83.97
2019-02-26T21:25:16.506Z,82.37
2019-02-26T21:27:44.997Z,86.03
2019-02-26T21:30:23.885Z,83.23
2019-02-26T21:32:52.393Z,81.37
2019-02-26T21:35:21.355Z,74.70
2019-02-26T21:37:49.881Z,83.17
2019-02-26T21:40:18.451Z,84.20
2019-02-26T21:42:47.025Z,79.87
2019-02-26T21:45:18.953Z,75.83
2019-02-26T21:47:47.429Z,87.67
2019-02-26T21:50:16.300Z,86.67
2019-02-26T21:52:59.055Z,88.53
2019-02-26T21:55:15.959Z,89.20
2019-02-26T21:57:44.404Z,88.33
2019-02-26T22:00:20.516Z,93.50
2019-02-26T22:02:52.029Z,90.72
2019-02-26T22:05:19.257Z,88.60
2019-02-26T22:07:52.035Z,81.07
2019-02-26T22:10:19.385Z,86.10
2019-02-26T22:12:47.996Z,94.17
2019-02-26T22:15:16.835Z,85.90
2019-02-26T22:17:45.540Z,88.00
2019-02-26T22:20:23.407Z,88.70
2019-02-26T22:22:45.476Z,95.10
2019-02-26T22:25:17.096Z,82.47
2019-02-26T22:27:44.326Z,87.97
2019-02-26T22:30:21.540Z,91.77
2019-02-26T22:32:46.949Z,98.67
2019-02-26T22:35:15.437Z,92.03
2019-02-26T22:37:43.981Z,96.77
2019-02-26T22:40:13.746Z,92.50
2019-02-26T22:42:42.276Z,90.80
2019-02-26T22:45:13.421Z,94.97
2019-02-26T22:47:43.945Z,100.50
2019-02-26T22:50:13.684Z,99.83
2019-02-26T22:52:42.141Z,102.60
2019-02-26T22:55:16.160Z,98.77
2019-02-26T22:57:43.333Z,96.37
2019-02-26T23:00:19.190Z,98.67
2019-02-26T23:02:47.641Z,85.50
2019-02-26T23:05:16.162Z,91.67
2019-02-26T23:07:44.681Z,84.33
2019-02-26T23:10:14.454Z,86.50
2019-02-26T23:12:42.925Z,92.83
2019-02-26T23:15:11.961Z,93.03
2019-02-26T23:17:41.129Z,93.77
2019-02-26T23:20:11.166Z,96.37
2019-02-26T23:22:39.612Z,97.50
2019-02-26T23:25:09.632Z,95.97
2019-02-26T23:27:38.109Z,97.53
2019-02-26T23:30:12.175Z,94.63
2019-02-26T23:32:40.696Z,88.20
2019-02-26T23:35:12.197Z,86.50
2019-02-26T23:37:40.615Z,90.33
2019-02-26T23:40:10.834Z,94.47
2019-02-26T23:42:39.735Z,97.83
2019-02-26T23:45:10.177Z,89.63
2019-02-26T23:47:38.745Z,93.80
2019-02-26T23:50:08.588Z,100.17
2019-02-26T23:52:37.100Z,102.17
2019-02-26T23:55:07.365Z,92.70
2019-02-26T23:57:35.777Z,103.90
